sensor_id;sensor_type;location;lat;lon;timestamp;pressure;altitude;pressure_sealevel;temperature;humidity
41862;BME280;27537;57.134;-2.136;2023-07-31T00:01:28;99480.88;;;16.95;100.00
41862;BME280;27537;57.134;-2.136;2023-07-31T00:03:55;99490.28;;;16.88;100.00
41862;BME280;27537;57.134;-2.136;2023-07-31T00:06:21;99489.78;;;16.83;100.00
41862;BME280;27537;57.134;-2.136;2023-07-31T00:08:48;99493.53;;;16.80;100.00
41862;BME280;27537;57.134;-2.136;2023-07-31T00:11:15;99493.78;;;16.77;100.00
41862;BME280;27537;57.134;-2.136;2023-07-31T00:13:41;99486.22;;;16.73;100.00
41862;BME280;27537;57.134;-2.136;2023-07-31T00:16:08;99486.47;;;16.69;100.00
41862;BME280;27537;57.134;-2.136;2023-07-31T00:18:35;99489.28;;;16.68;100.00
41862;BME280;27537;57.134;-2.136;2023-07-31T00:21:01;99480.59;;;16.66;100.00
41862;BME280;27537;57.134;-2.136;2023-07-31T00:23:28;99483.47;;;16.74;100.00
41862;BME280;27537;57.134;-2.136;2023-07-31T00:25:54;99484.41;;;16.52;100.00
41862;BME280;27537;57.134;-2.136;2023-07-31T00:28:21;99483.22;;;16.45;100.00
41862;BME280;27537;57.134;-2.136;2023-07-31T00:30:48;99468.59;;;16.41;100.00
41862;BME280;27537;57.134;-2.136;2023-07-31T00:33:14;99467.38;;;16.45;100.00
41862;BME280;27537;57.134;-2.136;2023-07-31T00:35:41;99486.72;;;16.45;100.00
41862;BME280;27537;57.134;-2.136;2023-07-31T00:38:08;99478.22;;;16.30;100.00
41862;BME280;27537;57.134;-2.136;2023-07-31T00:40:36;99477.69;;;16.16;100.00
41862;BME280;27537;57.134;-2.136;2023-07-31T00:43:03;99466.75;;;16.20;100.00
41862;BME280;27537;57.134;-2.136;2023-07-31T00:45:31;99475.75;;;16.18;100.00
41862;BME280;27537;57.134;-2.136;2023-07-31T00:47:58;99464.00;;;16.10;100.00
41862;BME280;27537;57.134;-2.136;2023-07-31T00:50:26;99475.03;;;16.16;100.00
41862;BME280;27537;57.134;-2.136;2023-07-31T00:52:53;99472.28;;;16.06;100.00
41862;BME280;27537;57.134;-2.136;2023-07-31T00:55:20;99467.53;;;16.00;100.00
41862;BME280;27537;57.134;-2.136;2023-07-31T00:57:48;99458.09;;;15.74;100.00
41862;BME280;27537;57.134;-2.136;2023-07-31T01:00:15;99462.88;;;15.69;100.00
41862;BME280;27537;57.134;-2.136;2023-07-31T01:02:42;99458.66;;;15.55;100.00
41862;BME280;27537;57.134;-2.136;2023-07-31T01:05:09;99480.38;;;15.59;100.00
41862;BME280;27537;57.134;-2.136;2023-07-31T01:07:47;99482.06;;;15.60;100.00
41862;BME280;27537;57.134;-2.136;2023-07-31T01:12:45;99471.41;;;15.62;100.00
41862;BME280;27537;57.134;-2.136;2023-07-31T01:15:13;99475.81;;;15.50;100.00
41862;BME280;27537;57.134;-2.136;2023-07-31T01:17:42;99456.88;;;15.33;100.00
41862;BME280;27537;57.134;-2.136;2023-07-31T01:20:16;99472.94;;;15.53;100.00
41862;BME280;27537;57.134;-2.136;2023-07-31T01:22:54;99481.31;;;15.58;100.00
41862;BME280;27537;57.134;-2.136;2023-07-31T01:26:05;99471.84;;;15.55;100.00
41862;BME280;27537;57.134;-2.136;2023-07-31T01:28:56;99473.06;;;15.51;100.00
41862;BME280;27537;57.134;-2.136;2023-07-31T01:31:29;99475.72;;;15.51;100.00
41862;BME280;27537;57.134;-2.136;2023-07-31T01:33:59;99468.03;;;15.48;100.00
41862;BME280;27537;57.134;-2.136;2023-07-31T01:36:26;99473.19;;;15.50;100.00
41862;BME280;27537;57.134;-2.136;2023-07-31T01:38:58;99463.84;;;15.46;100.00
41862;BME280;27537;57.134;-2.136;2023-07-31T01:41:26;99439.97;;;15.36;100.00
41862;BME280;27537;57.134;-2.136;2023-07-31T01:43:52;99463.84;;;15.46;100.00
41862;BME280;27537;57.134;-2.136;2023-07-31T01:46:19;99454.47;;;15.42;100.00
41862;BME280;27537;57.134;-2.136;2023-07-31T01:48:46;99454.59;;;15.29;100.00
41862;BME280;27537;57.134;-2.136;2023-07-31T01:51:12;99442.00;;;15.21;100.00
41862;BME280;27537;57.134;-2.136;2023-07-31T01:53:39;99433.38;;;15.30;100.00
41862;BME280;27537;57.134;-2.136;2023-07-31T01:56:06;99441.75;;;15.13;100.00
41862;BME280;27537;57.134;-2.136;2023-07-31T01:58:32;99425.56;;;14.95;100.00
41862;BME280;27537;57.134;-2.136;2023-07-31T02:00:59;99430.09;;;14.81;100.00
41862;BME280;27537;57.134;-2.136;2023-07-31T02:03:26;99429.03;;;14.84;100.00
41862;BME280;27537;57.134;-2.136;2023-07-31T02:05:54;99430.72;;;14.96;100.00
41862;BME280;27537;57.134;-2.136;2023-07-31T02:08:20;99436.44;;;14.90;100.00
41862;BME280;27537;57.134;-2.136;2023-07-31T02:10:47;99422.91;;;14.84;100.00
41862;BME280;27537;57.134;-2.136;2023-07-31T02:13:14;99425.34;;;14.98;100.00
41862;BME280;27537;57.134;-2.136;2023-07-31T02:15:40;99414.66;;;14.88;100.00
41862;BME280;27537;57.134;-2.136;2023-07-31T02:18:07;99409.38;;;14.88;100.00
41862;BME280;27537;57.134;-2.136;2023-07-31T02:20:34;99420.41;;;14.82;100.00
41862;BME280;27537;57.134;-2.136;2023-07-31T02:23:02;99421.69;;;14.76;100.00
41862;BME280;27537;57.134;-2.136;2023-07-31T02:25:28;99407.41;;;14.68;100.00
41862;BME280;27537;57.134;-2.136;2023-07-31T02:27:55;99407.19;;;14.71;100.00
41862;BME280;27537;57.134;-2.136;2023-07-31T02:30:22;99397.97;;;14.76;100.00
41862;BME280;27537;57.134;-2.136;2023-07-31T02:32:49;99392.81;;;14.64;100.00
41862;BME280;27537;57.134;-2.136;2023-07-31T02:35:16;99408.63;;;14.75;100.00
41862;BME280;27537;57.134;-2.136;2023-07-31T02:37:45;99406.47;;;14.69;100.00
41862;BME280;27537;57.134;-2.136;2023-07-31T02:40:11;99390.16;;;14.64;100.00
41862;BME280;27537;57.134;-2.136;2023-07-31T02:42:38;99398.56;;;14.69;100.00
41862;BME280;27537;57.134;-2.136;2023-07-31T02:45:05;99402.53;;;14.74;100.00
41862;BME280;27537;57.134;-2.136;2023-07-31T02:47:32;99396.41;;;14.74;100.00
41862;BME280;27537;57.134;-2.136;2023-07-31T02:49:59;99392.81;;;14.64;100.00
41862;BME280;27537;57.134;-2.136;2023-07-31T02:52:26;99373.47;;;14.52;100.00
41862;BME280;27537;57.134;-2.136;2023-07-31T02:54:53;99398.13;;;14.51;100.00
41862;BME280;27537;57.134;-2.136;2023-07-31T02:57:19;99390.00;;;14.54;100.00
41862;BME280;27537;57.134;-2.136;2023-07-31T02:59:46;99383.66;;;14.56;100.00
41862;BME280;27537;57.134;-2.136;2023-07-31T03:02:13;99387.81;;;14.48;100.00
41862;BME280;27537;57.134;-2.136;2023-07-31T03:04:40;99398.53;;;14.57;100.00
41862;BME280;27537;57.134;-2.136;2023-07-31T03:07:07;99398.44;;;14.59;100.00
41862;BME280;27537;57.134;-2.136;2023-07-31T03:09:33;99385.28;;;14.70;100.00
41862;BME280;27537;57.134;-2.136;2023-07-31T03:12:00;99379.03;;;14.71;100.00
41862;BME280;27537;57.134;-2.136;2023-07-31T03:14:27;99395.44;;;14.75;100.00
41862;BME280;27537;57.134;-2.136;2023-07-31T03:16:54;99385.06;;;14.73;100.00
41862;BME280;27537;57.134;-2.136;2023-07-31T03:19:21;99383.13;;;14.75;100.00
41862;BME280;27537;57.134;-2.136;2023-07-31T03:21:47;99390.88;;;14.66;100.00
41862;BME280;27537;57.134;-2.136;2023-07-31T03:24:14;99391.16;;;14.74;100.00
41862;BME280;27537;57.134;-2.136;2023-07-31T03:26:40;99402.16;;;14.68;100.00
41862;BME280;27537;57.134;-2.136;2023-07-31T03:29:10;99394.63;;;14.74;100.00
41862;BME280;27537;57.134;-2.136;2023-07-31T03:31:36;99394.50;;;14.76;100.00
41862;BME280;27537;57.134;-2.136;2023-07-31T03:34:03;99385.34;;;14.57;100.00
41862;BME280;27537;57.134;-2.136;2023-07-31T03:36:30;99389.13;;;14.42;100.00
41862;BME280;27537;57.134;-2.136;2023-07-31T03:38:56;99394.66;;;14.50;100.00
41862;BME280;27537;57.134;-2.136;2023-07-31T03:41:23;99390.31;;;14.73;100.00
41862;BME280;27537;57.134;-2.136;2023-07-31T03:43:51;99393.19;;;14.46;100.00
41862;BME280;27537;57.134;-2.136;2023-07-31T03:46:18;99401.00;;;14.48;100.00
41862;BME280;27537;57.134;-2.136;2023-07-31T03:48:45;99370.38;;;14.47;100.00
41862;BME280;27537;57.134;-2.136;2023-07-31T03:51:12;99396.63;;;14.59;100.00
41862;BME280;27537;57.134;-2.136;2023-07-31T03:53:38;99387.81;;;14.72;100.00
41862;BME280;27537;57.134;-2.136;2023-07-31T03:56:05;99398.84;;;14.88;100.00
41862;BME280;27537;57.134;-2.136;2023-07-31T03:58:32;99391.69;;;15.02;100.00
41862;BME280;27537;57.134;-2.136;2023-07-31T04:00:59;99394.06;;;15.05;100.00
41862;BME280;27537;57.134;-2.136;2023-07-31T04:03:25;99403.28;;;15.22;100.00
41862;BME280;27537;57.134;-2.136;2023-07-31T04:05:54;99397.78;;;15.25;100.00
41862;BME280;27537;57.134;-2.136;2023-07-31T04:08:22;99390.34;;;15.07;100.00
41862;BME280;27537;57.134;-2.136;2023-07-31T04:10:49;99393.09;;;15.17;100.00
41862;BME280;27537;57.134;-2.136;2023-07-31T04:13:16;99398.38;;;15.28;100.00
41862;BME280;27537;57.134;-2.136;2023-07-31T04:15:42;99398.13;;;15.31;100.00
41862;BME280;27537;57.134;-2.136;2023-07-31T04:18:14;99387.34;;;15.34;100.00
41862;BME280;27537;57.134;-2.136;2023-07-31T04:20:40;99387.56;;;15.31;100.00
41862;BME280;27537;57.134;-2.136;2023-07-31T04:23:07;99394.31;;;15.35;100.00
41862;BME280;27537;57.134;-2.136;2023-07-31T04:25:33;99387.00;;;15.39;100.00
41862;BME280;27537;57.134;-2.136;2023-07-31T04:28:01;99379.66;;;15.31;100.00
41862;BME280;27537;57.134;-2.136;2023-07-31T04:30:28;99384.59;;;15.36;100.00
41862;BME280;27537;57.134;-2.136;2023-07-31T04:32:54;99381.34;;;15.44;100.00
41862;BME280;27537;57.134;-2.136;2023-07-31T04:35:21;99385.31;;;15.49;100.00
41862;BME280;27537;57.134;-2.136;2023-07-31T04:37:48;99385.31;;;15.49;100.00
41862;BME280;27537;57.134;-2.136;2023-07-31T04:40:18;99386.03;;;15.51;100.00
41862;BME280;27537;57.134;-2.136;2023-07-31T04:42:45;99375.66;;;15.60;100.00
41862;BME280;27537;57.134;-2.136;2023-07-31T04:45:14;99385.03;;;15.64;100.00
41862;BME280;27537;57.134;-2.136;2023-07-31T04:47:41;99377.47;;;15.59;100.00
41862;BME280;27537;57.134;-2.136;2023-07-31T04:50:08;99379.66;;;15.65;100.00
41862;BME280;27537;57.134;-2.136;2023-07-31T04:52:34;99367.03;;;15.69;100.00
41862;BME280;27537;57.134;-2.136;2023-07-31T04:55:01;99373.13;;;15.81;100.00
41862;BME280;27537;57.134;-2.136;2023-07-31T04:57:28;99371.53;;;16.01;100.00
41862;BME280;27537;57.134;-2.136;2023-07-31T04:59:54;99365.84;;;16.05;100.00
41862;BME280;27537;57.134;-2.136;2023-07-31T05:02:21;99363.97;;;15.96;100.00
41862;BME280;27537;57.134;-2.136;2023-07-31T05:04:48;99369.47;;;16.04;100.00
41862;BME280;27537;57.134;-2.136;2023-07-31T05:07:14;99366.09;;;16.02;100.00
41862;BME280;27537;57.134;-2.136;2023-07-31T05:09:41;99363.81;;;16.09;100.00
41862;BME280;27537;57.134;-2.136;2023-07-31T05:12:08;99368.91;;;16.01;100.00
41862;BME280;27537;57.134;-2.136;2023-07-31T05:14:35;99376.16;;;15.65;100.00
41862;BME280;27537;57.134;-2.136;2023-07-31T05:17:01;99355.78;;;15.55;100.00
41862;BME280;27537;57.134;-2.136;2023-07-31T05:19:28;99357.84;;;15.52;100.00
41862;BME280;27537;57.134;-2.136;2023-07-31T05:21:55;99356.50;;;15.69;100.00
41862;BME280;27537;57.134;-2.136;2023-07-31T05:24:21;99362.59;;;15.58;100.00
41862;BME280;27537;57.134;-2.136;2023-07-31T05:26:48;99364.44;;;15.46;100.00
41862;BME280;27537;57.134;-2.136;2023-07-31T05:29:15;99349.09;;;15.40;100.00
41862;BME280;27537;57.134;-2.136;2023-07-31T05:31:44;99360.13;;;15.45;100.00
41862;BME280;27537;57.134;-2.136;2023-07-31T05:34:11;99362.59;;;15.69;100.00
41862;BME280;27537;57.134;-2.136;2023-07-31T05:36:37;99341.81;;;15.87;100.00
41862;BME280;27537;57.134;-2.136;2023-07-31T05:39:04;99354.78;;;15.79;100.00
41862;BME280;27537;57.134;-2.136;2023-07-31T05:41:35;99352.84;;;15.92;100.00
41862;BME280;27537;57.134;-2.136;2023-07-31T05:44:02;99346.75;;;16.13;100.00
41862;BME280;27537;57.134;-2.136;2023-07-31T05:46:28;99347.94;;;16.20;100.00
41862;BME280;27537;57.134;-2.136;2023-07-31T05:48:56;99342.13;;;16.26;100.00
41862;BME280;27537;57.134;-2.136;2023-07-31T05:51:22;99349.78;;;16.29;100.00
41862;BME280;27537;57.134;-2.136;2023-07-31T05:53:49;99347.91;;;16.41;100.00
41862;BME280;27537;57.134;-2.136;2023-07-31T05:56:15;99339.72;;;16.44;100.00
41862;BME280;27537;57.134;-2.136;2023-07-31T05:58:42;99337.47;;;16.61;100.00
41862;BME280;27537;57.134;-2.136;2023-07-31T06:01:09;99336.31;;;16.54;100.00
41862;BME280;27537;57.134;-2.136;2023-07-31T06:03:36;99333.03;;;16.61;100.00
41862;BME280;27537;57.134;-2.136;2023-07-31T06:06:03;99334.22;;;16.78;100.00
41862;BME280;27537;57.134;-2.136;2023-07-31T06:08:29;99338.78;;;16.97;100.00
41862;BME280;27537;57.134;-2.136;2023-07-31T06:10:56;99333.50;;;16.97;100.00
41862;BME280;27537;57.134;-2.136;2023-07-31T06:13:22;99330.50;;;17.12;100.00
41862;BME280;27537;57.134;-2.136;2023-07-31T06:15:49;99331.75;;;17.17;100.00
41862;BME280;27537;57.134;-2.136;2023-07-31T06:18:16;99324.84;;;17.26;100.00
41862;BME280;27537;57.134;-2.136;2023-07-31T06:20:42;99326.75;;;17.14;100.00
41862;BME280;27537;57.134;-2.136;2023-07-31T06:23:09;99323.88;;;17.27;100.00
41862;BME280;27537;57.134;-2.136;2023-07-31T06:25:36;99323.19;;;17.35;100.00
41862;BME280;27537;57.134;-2.136;2023-07-31T06:28:02;99319.72;;;17.44;100.00
41862;BME280;27537;57.134;-2.136;2023-07-31T06:30:29;99320.56;;;17.44;100.00
41862;BME280;27537;57.134;-2.136;2023-07-31T06:32:56;99313.91;;;17.50;100.00
41862;BME280;27537;57.134;-2.136;2023-07-31T06:35:22;99314.28;;;17.45;100.00
41862;BME280;27537;57.134;-2.136;2023-07-31T06:37:49;99317.50;;;17.49;100.00
41862;BME280;27537;57.134;-2.136;2023-07-31T06:40:17;99323.66;;;17.50;100.00
41862;BME280;27537;57.134;-2.136;2023-07-31T06:42:44;99320.72;;;17.53;100.00
41862;BME280;27537;57.134;-2.136;2023-07-31T06:45:11;99305.66;;;17.43;100.00
41862;BME280;27537;57.134;-2.136;2023-07-31T06:47:38;99305.03;;;17.71;100.00
41862;BME280;27537;57.134;-2.136;2023-07-31T06:50:05;99305.84;;;17.71;100.00
41862;BME280;27537;57.134;-2.136;2023-07-31T06:52:31;99304.16;;;17.70;100.00
41862;BME280;27537;57.134;-2.136;2023-07-31T06:55:18;99311.03;;;17.92;100.00
41862;BME280;27537;57.134;-2.136;2023-07-31T06:57:50;99304.66;;;18.52;100.00
41862;BME280;27537;57.134;-2.136;2023-07-31T07:00:17;99307.91;;;19.48;100.00
41862;BME280;27537;57.134;-2.136;2023-07-31T07:02:45;99317.72;;;20.02;100.00
41862;BME280;27537;57.134;-2.136;2023-07-31T07:05:15;99315.28;;;20.08;100.00
41862;BME280;27537;57.134;-2.136;2023-07-31T07:07:42;99319.03;;;20.42;100.00
41862;BME280;27537;57.134;-2.136;2023-07-31T07:10:09;99310.31;;;20.32;100.00
41862;BME280;27537;57.134;-2.136;2023-07-31T07:12:36;99309.06;;;20.96;100.00
41862;BME280;27537;57.134;-2.136;2023-07-31T07:15:03;99315.97;;;20.81;100.00
41862;BME280;27537;57.134;-2.136;2023-07-31T07:17:30;99310.28;;;20.49;100.00
41862;BME280;27537;57.134;-2.136;2023-07-31T07:20:00;99310.28;;;21.10;100.00
41862;BME280;27537;57.134;-2.136;2023-07-31T07:22:27;99307.34;;;21.30;100.00
41862;BME280;27537;57.134;-2.136;2023-07-31T07:24:54;99313.38;;;21.40;100.00
41862;BME280;27537;57.134;-2.136;2023-07-31T07:27:20;99308.91;;;20.98;100.00
41862;BME280;27537;57.134;-2.136;2023-07-31T07:29:50;99304.81;;;20.77;100.00
41862;BME280;27537;57.134;-2.136;2023-07-31T07:32:17;99301.97;;;21.13;100.00
41862;BME280;27537;57.134;-2.136;2023-07-31T07:34:44;99303.63;;;20.45;100.00
41862;BME280;27537;57.134;-2.136;2023-07-31T07:37:11;99311.78;;;20.78;100.00
41862;BME280;27537;57.134;-2.136;2023-07-31T07:39:38;99298.66;;;20.77;100.00
41862;BME280;27537;57.134;-2.136;2023-07-31T07:42:04;99306.72;;;20.93;100.00
41862;BME280;27537;57.134;-2.136;2023-07-31T07:44:31;99292.56;;;20.84;100.00
41862;BME280;27537;57.134;-2.136;2023-07-31T07:46:58;99308.47;;;21.11;100.00
41862;BME280;27537;57.134;-2.136;2023-07-31T07:49:25;99287.50;;;20.73;100.00
41862;BME280;27537;57.134;-2.136;2023-07-31T07:51:51;99295.47;;;21.08;100.00
41862;BME280;27537;57.134;-2.136;2023-07-31T07:54:18;99295.81;;;21.64;100.00
41862;BME280;27537;57.134;-2.136;2023-07-31T07:56:46;99291.53;;;21.20;100.00
41862;BME280;27537;57.134;-2.136;2023-07-31T07:59:13;99290.50;;;21.13;100.00
41862;BME280;27537;57.134;-2.136;2023-07-31T08:01:39;99289.34;;;21.74;100.00
41862;BME280;27537;57.134;-2.136;2023-07-31T08:04:06;99273.53;;;21.81;100.00
41862;BME280;27537;57.134;-2.136;2023-07-31T08:06:33;99277.16;;;21.64;100.00
41862;BME280;27537;57.134;-2.136;2023-07-31T08:08:59;99274.84;;;22.18;100.00
41862;BME280;27537;57.134;-2.136;2023-07-31T08:11:35;99273.00;;;21.61;100.00
41862;BME280;27537;57.134;-2.136;2023-07-31T08:14:01;99270.53;;;21.76;100.00
41862;BME280;27537;57.134;-2.136;2023-07-31T08:16:28;99271.53;;;21.99;100.00
41862;BME280;27537;57.134;-2.136;2023-07-31T08:18:55;99277.50;;;22.43;100.00
41862;BME280;27537;57.134;-2.136;2023-07-31T08:21:22;99266.03;;;22.26;100.00
41862;BME280;27537;57.134;-2.136;2023-07-31T08:23:49;99261.84;;;22.15;100.00
41862;BME280;27537;57.134;-2.136;2023-07-31T08:26:17;99265.00;;;22.43;100.00
41862;BME280;27537;57.134;-2.136;2023-07-31T08:28:44;99262.56;;;21.92;100.00
41862;BME280;27537;57.134;-2.136;2023-07-31T08:31:11;99252.88;;;21.83;100.00
41862;BME280;27537;57.134;-2.136;2023-07-31T08:33:38;99267.03;;;21.75;100.00
41862;BME280;27537;57.134;-2.136;2023-07-31T08:36:06;99259.19;;;21.57;100.00
41862;BME280;27537;57.134;-2.136;2023-07-31T08:38:33;99273.59;;;21.38;100.00
41862;BME280;27537;57.134;-2.136;2023-07-31T08:41:00;99262.84;;;21.56;100.00
41862;BME280;27537;57.134;-2.136;2023-07-31T08:43:27;99262.56;;;21.17;100.00
41862;BME280;27537;57.134;-2.136;2023-07-31T08:45:54;99253.59;;;21.26;100.00
41862;BME280;27537;57.134;-2.136;2023-07-31T08:48:23;99260.34;;;20.96;100.00
41862;BME280;27537;57.134;-2.136;2023-07-31T08:50:51;99257.00;;;21.53;100.00
41862;BME280;27537;57.134;-2.136;2023-07-31T08:53:19;99257.41;;;21.74;100.00
41862;BME280;27537;57.134;-2.136;2023-07-31T08:55:48;99247.59;;;21.16;100.00
41862;BME280;27537;57.134;-2.136;2023-07-31T08:58:15;99243.97;;;21.25;100.00
41862;BME280;27537;57.134;-2.136;2023-07-31T09:00:45;99238.97;;;20.71;100.00
41862;BME280;27537;57.134;-2.136;2023-07-31T09:03:15;99252.25;;;20.71;100.00
41862;BME280;27537;57.134;-2.136;2023-07-31T09:05:44;99245.19;;;20.96;100.00
41862;BME280;27537;57.134;-2.136;2023-07-31T09:08:18;99262.56;;;20.48;100.00
41862;BME280;27537;57.134;-2.136;2023-07-31T09:10:46;99246.72;;;20.64;100.00
41862;BME280;27537;57.134;-2.136;2023-07-31T09:13:13;99263.75;;;20.72;100.00
41862;BME280;27537;57.134;-2.136;2023-07-31T09:15:43;99259.25;;;20.46;100.00
41862;BME280;27537;57.134;-2.136;2023-07-31T09:18:10;99244.22;;;20.97;100.00
41862;BME280;27537;57.134;-2.136;2023-07-31T09:20:37;99242.34;;;20.29;100.00
41862;BME280;27537;57.134;-2.136;2023-07-31T09:23:12;99255.09;;;20.43;100.00
41862;BME280;27537;57.134;-2.136;2023-07-31T09:25:43;99252.56;;;21.02;100.00
41862;BME280;27537;57.134;-2.136;2023-07-31T09:28:10;99257.31;;;21.41;100.00
41862;BME280;27537;57.134;-2.136;2023-07-31T09:30:49;99240.47;;;20.21;100.00
41862;BME280;27537;57.134;-2.136;2023-07-31T09:33:17;99251.03;;;20.92;100.00
41862;BME280;27537;57.134;-2.136;2023-07-31T09:35:44;99255.31;;;20.24;100.00
41862;BME280;27537;57.134;-2.136;2023-07-31T09:38:12;99237.78;;;20.39;100.00
41862;BME280;27537;57.134;-2.136;2023-07-31T09:40:41;99246.47;;;20.49;100.00
41862;BME280;27537;57.134;-2.136;2023-07-31T09:43:13;99247.78;;;21.14;100.00
41862;BME280;27537;57.134;-2.136;2023-07-31T09:45:41;99229.13;;;20.63;100.00
41862;BME280;27537;57.134;-2.136;2023-07-31T09:48:13;99243.28;;;20.46;100.00
41862;BME280;27537;57.134;-2.136;2023-07-31T09:50:44;99241.41;;;20.64;100.00
41862;BME280;27537;57.134;-2.136;2023-07-31T09:53:12;99232.44;;;20.13;100.00
41862;BME280;27537;57.134;-2.136;2023-07-31T09:55:40;99238.50;;;20.49;100.00
41862;BME280;27537;57.134;-2.136;2023-07-31T09:58:09;99230.72;;;20.82;100.00
41862;BME280;27537;57.134;-2.136;2023-07-31T10:00:36;99231.38;;;20.84;100.00
41862;BME280;27537;57.134;-2.136;2023-07-31T10:03:10;99224.78;;;20.62;100.00
41862;BME280;27537;57.134;-2.136;2023-07-31T10:05:45;99216.84;;;20.71;100.00
41862;BME280;27537;57.134;-2.136;2023-07-31T10:08:14;99215.25;;;20.52;100.00
41862;BME280;27537;57.134;-2.136;2023-07-31T10:10:45;99226.56;;;20.88;100.00
41862;BME280;27537;57.134;-2.136;2023-07-31T10:13:13;99220.88;;;21.34;100.00
41862;BME280;27537;57.134;-2.136;2023-07-31T10:15:41;99229.72;;;21.67;100.00
41862;BME280;27537;57.134;-2.136;2023-07-31T10:18:10;99235.72;;;21.61;100.00
41862;BME280;27537;57.134;-2.136;2023-07-31T10:20:38;99225.75;;;21.63;100.00
41862;BME280;27537;57.134;-2.136;2023-07-31T10:23:06;99216.06;;;21.87;100.00
41862;BME280;27537;57.134;-2.136;2023-07-31T10:25:33;99220.53;;;22.19;100.00
41862;BME280;27537;57.134;-2.136;2023-07-31T10:28:00;99217.25;;;21.92;100.00
41862;BME280;27537;57.134;-2.136;2023-07-31T10:30:29;99205.78;;;21.59;100.00
41862;BME280;27537;57.134;-2.136;2023-07-31T10:32:57;99210.75;;;21.54;100.00
41862;BME280;27537;57.134;-2.136;2023-07-31T10:35:24;99205.41;;;21.46;100.00
41862;BME280;27537;57.134;-2.136;2023-07-31T10:37:52;99202.78;;;21.62;100.00
41862;BME280;27537;57.134;-2.136;2023-07-31T10:40:24;99204.13;;;21.66;100.00
41862;BME280;27537;57.134;-2.136;2023-07-31T10:42:53;99190.91;;;21.23;100.00
41862;BME280;27537;57.134;-2.136;2023-07-31T10:47:59;99198.88;;;21.32;100.00
41862;BME280;27537;57.134;-2.136;2023-07-31T10:50:31;99198.56;;;21.27;100.00
41862;BME280;27537;57.134;-2.136;2023-07-31T10:53:01;99198.41;;;21.45;100.00
41862;BME280;27537;57.134;-2.136;2023-07-31T10:58:10;99189.53;;;21.19;100.00
41862;BME280;27537;57.134;-2.136;2023-07-31T11:00:38;99194.38;;;21.08;100.00
41862;BME280;27537;57.134;-2.136;2023-07-31T11:03:08;99190.38;;;21.28;100.00
41862;BME280;27537;57.134;-2.136;2023-07-31T11:08:27;99183.88;;;21.06;100.00
41862;BME280;27537;57.134;-2.136;2023-07-31T11:16:06;99174.47;;;20.69;100.00
41862;BME280;27537;57.134;-2.136;2023-07-31T11:18:33;99170.38;;;20.99;100.00
41862;BME280;27537;57.134;-2.136;2023-07-31T11:21:00;99153.41;;;20.92;100.00
41862;BME280;27537;57.134;-2.136;2023-07-31T11:23:26;99171.09;;;21.10;100.00
41862;BME280;27537;57.134;-2.136;2023-07-31T11:25:59;99165.75;;;21.10;100.00
41862;BME280;27537;57.134;-2.136;2023-07-31T11:28:26;99159.94;;;21.22;100.00
41862;BME280;27537;57.134;-2.136;2023-07-31T11:30:56;99173.06;;;21.16;100.00
41862;BME280;27537;57.134;-2.136;2023-07-31T11:33:23;99168.72;;;20.90;100.00
41862;BME280;27537;57.134;-2.136;2023-07-31T11:35:50;99165.38;;;20.96;100.00
41862;BME280;27537;57.134;-2.136;2023-07-31T11:38:28;99169.72;;;20.97;100.00
41862;BME280;27537;57.134;-2.136;2023-07-31T11:41:04;99161.56;;;20.82;100.00
41862;BME280;27537;57.134;-2.136;2023-07-31T11:43:32;99162.94;;;20.60;100.00
41862;BME280;27537;57.134;-2.136;2023-07-31T11:46:00;99161.34;;;20.41;100.00
41862;BME280;27537;57.134;-2.136;2023-07-31T11:48:32;99157.06;;;20.48;100.00
41862;BME280;27537;57.134;-2.136;2023-07-31T11:51:03;99166.25;;;20.54;100.00
41862;BME280;27537;57.134;-2.136;2023-07-31T11:53:45;99149.94;;;20.15;100.00
41862;BME280;27537;57.134;-2.136;2023-07-31T11:56:14;99155.16;;;20.24;100.00
41862;BME280;27537;57.134;-2.136;2023-07-31T11:58:43;99158.31;;;20.28;100.00
41862;BME280;27537;57.134;-2.136;2023-07-31T12:01:14;99151.19;;;20.02;100.00
41862;BME280;27537;57.134;-2.136;2023-07-31T12:03:44;99149.56;;;20.09;100.00
41862;BME280;27537;57.134;-2.136;2023-07-31T12:06:11;99146.91;;;20.09;100.00
41862;BME280;27537;57.134;-2.136;2023-07-31T12:08:38;99142.44;;;20.10;100.00
41862;BME280;27537;57.134;-2.136;2023-07-31T12:11:05;99145.25;;;20.08;100.00
41862;BME280;27537;57.134;-2.136;2023-07-31T12:13:33;99145.28;;;20.17;100.00
41862;BME280;27537;57.134;-2.136;2023-07-31T12:16:01;99143.66;;;19.89;100.00
41862;BME280;27537;57.134;-2.136;2023-07-31T12:18:39;99136.09;;;20.03;100.00
41862;BME280;27537;57.134;-2.136;2023-07-31T12:21:07;99121.59;;;19.97;100.00
41862;BME280;27537;57.134;-2.136;2023-07-31T12:23:36;99118.41;;;19.85;100.00
41862;BME280;27537;57.134;-2.136;2023-07-31T12:28:38;99129.63;;;19.79;100.00
41862;BME280;27537;57.134;-2.136;2023-07-31T12:31:09;99110.84;;;19.54;100.00
41862;BME280;27537;57.134;-2.136;2023-07-31T12:33:39;99109.63;;;19.85;100.00
41862;BME280;27537;57.134;-2.136;2023-07-31T12:36:17;99118.09;;;19.70;100.00
41862;BME280;27537;57.134;-2.136;2023-07-31T12:38:45;99113.78;;;19.69;100.00
41862;BME280;27537;57.134;-2.136;2023-07-31T12:41:12;99114.03;;;19.76;100.00
41862;BME280;27537;57.134;-2.136;2023-07-31T12:43:41;99106.66;;;19.70;100.00
41862;BME280;27537;57.134;-2.136;2023-07-31T12:46:08;99096.16;;;19.42;100.00
41862;BME280;27537;57.134;-2.136;2023-07-31T12:48:37;99089.75;;;19.27;100.00
41862;BME280;27537;57.134;-2.136;2023-07-31T12:51:04;99095.63;;;19.39;100.00
41862;BME280;27537;57.134;-2.136;2023-07-31T12:53:31;99094.09;;;19.10;100.00
41862;BME280;27537;57.134;-2.136;2023-07-31T12:55:58;99087.59;;;18.86;100.00
41862;BME280;27537;57.134;-2.136;2023-07-31T12:58:25;99095.91;;;18.91;100.00
41862;BME280;27537;57.134;-2.136;2023-07-31T13:00:52;99088.41;;;18.87;100.00
41862;BME280;27537;57.134;-2.136;2023-07-31T13:03:19;99082.16;;;18.78;100.00